Edna, South Dakota
Current Conditions -  °F | °C
As of 11:06 PM on Friday 19 Dec 2014 (Local Time) from KPIR Reporting Station
Haze Haze  
Wind Chill: 16°   Ceiling: Unl
Heat Index: 16°   Visibility: 3mi
Dew Point: 14°   Wind: 3mph
Humidity: 92%   Direction: 90°E
Pressure: 29.96"   Gusts: NA
Location:  43.909°N, 100.128°W
Report Text: KPIR 200506Z AUTO 09003KT 3SM BR CLR M09/M10 A2996 RMK AO2 T10891100
Loading
Personal Weather Stations






























Interactive Weather Map New forecast layout! Learn more

10-Day Weather Forecast

Advertisements
Track Severe Weather on mobile